KPHT/PHT METAR and TAF weather

Enter ICAO airport designator
Station Type Date Time Source
KPHT METAR 2020/12/06 01:55 UTC NOAA

KPHT 060155Z AUTO 00000KT 10SM FEW028 03/01 A3009 RMK A01


Station Type Date Time Source
KPHT Decoded METAR 2020/12/06 01:55 UTC NOAA

Station name not available
Dec 05, 2020 - 08:55 PM EST / 2020.12.06 0155 UTC
Wind: Calm:0
Visibility: 10 mile(s):0
Sky conditions: mostly clear
Temperature: 37 F (3 C)
Dew Point: 33 F (1 C)
Relative Humidity: 86%
Pressure (altimeter): 30.09 in. Hg (1018 hPa)
ob: KPHT 060155Z AUTO 00000KT 10SM FEW028 03/01 A3009 RMK A01
cycle: 2

Station Type Date Time Source
KPHT TAF UTC NOAA

Error!

Example: see airport list